Time;durP1;ratioP1;P1;durP2;ratioP2;P2;SDS_P1;SDS_P2;PMS_P1;PMS_P2;Temp;Humidity;BMP_temperature;BMP_pressure;BME280_temperature;BME280_humidity;BME280_pressure;Samples;Min_cycle;Max_cycle;Signal;HPM_P1;HPM_P2
2021/06/26 00:00:12;;;;;;;12.48;6.97;;;25.80;93.40;;;;;;5137519;27;20023;-78
2021/06/26 00:02:38;;;;;;;10.38;7.10;;;25.70;93.30;;;;;;5137969;27;20457;-78
2021/06/26 00:05:06;;;;;;;11.05;6.20;;;25.70;93.50;;;;;;5137479;27;20019;-78
2021/06/26 00:07:32;;;;;;;8.02;7.22;;;25.70;93.60;;;;;;5137300;27;20066;-78
2021/06/26 00:09:57;;;;;;;10.65;6.82;;;25.60;93.70;;;;;;5137312;27;20051;-78
2021/06/26 00:12:23;;;;;;;16.20;7.25;;;25.60;93.70;;;;;;5137365;27;20052;-78
2021/06/26 00:14:50;;;;;;;10.63;7.60;;;25.50;94.00;;;;;;5137480;27;20102;-78
2021/06/26 00:17:15;;;;;;;10.90;7.50;;;25.40;94.20;;;;;;5137868;27;20461;-78
2021/06/26 00:19:41;;;;;;;13.35;7.75;;;25.50;94.50;;;;;;5137070;27;20034;-78
2021/06/26 00:22:07;;;;;;;13.10;7.68;;;25.40;94.50;;;;;;5137158;27;20064;-78
2021/06/26 00:24:33;;;;;;;16.05;7.47;;;25.40;94.60;;;;;;5137245;27;20114;-79
2021/06/26 00:26:58;;;;;;;9.82;7.20;;;25.50;94.60;;;;;;5137018;27;20019;-79
2021/06/26 00:29:24;;;;;;;10.80;7.60;;;25.50;94.70;;;;;;5137310;27;20026;-78
2021/06/26 00:31:50;;;;;;;9.40;7.30;;;25.50;94.70;;;;;;5118616;27;20031;-78
2021/06/26 00:34:15;;;;;;;12.48;8.93;;;25.50;94.80;;;;;;5137428;27;20023;-78
2021/06/26 00:36:41;;;;;;;11.95;8.20;;;25.40;95.50;;;;;;5136702;27;20054;-78
2021/06/26 00:39:07;;;;;;;8.82;8.02;;;25.50;95.30;;;;;;5136961;27;20373;-79
2021/06/26 00:41:33;;;;;;;11.27;8.48;;;25.40;95.50;;;;;;5137156;27;20023;-78
2021/06/26 00:43:59;;;;;;;13.60;9.05;;;25.40;95.70;;;;;;5136729;27;20102;-78
2021/06/26 00:46:24;;;;;;;10.60;8.70;;;25.40;95.80;;;;;;5118274;27;20025;-78
2021/06/26 00:48:50;;;;;;;12.95;8.35;;;25.40;95.80;;;;;;5118162;27;20042;-78
2021/06/26 00:51:15;;;;;;;10.75;8.20;;;25.40;96.00;;;;;;5136569;27;20053;-78
2021/06/26 00:53:41;;;;;;;12.20;8.80;;;25.50;96.00;;;;;;5118201;27;20532;-78
2021/06/26 00:56:08;;;;;;;14.90;8.30;;;25.40;96.10;;;;;;5118008;27;20020;-78
2021/06/26 00:58:34;;;;;;;12.30;8.70;;;25.50;96.30;;;;;;5136379;27;20354;-79
2021/06/26 01:01:00;;;;;;;10.65;8.40;;;25.40;96.30;;;;;;5136798;27;20035;-79
2021/06/26 01:03:26;;;;;;;13.18;9.23;;;25.40;96.30;;;;;;5136682;27;20019;-79
2021/06/26 01:05:52;;;;;;;10.27;8.02;;;25.40;96.40;;;;;;5136462;27;20442;-79
2021/06/26 01:08:18;;;;;;;11.18;8.18;;;25.40;96.40;;;;;;5136457;27;20023;-79
2021/06/26 01:10:44;;;;;;;9.88;8.88;;;25.40;96.40;;;;;;5117759;27;20540;-78
2021/06/26 01:13:10;;;;;;;19.05;8.82;;;25.40;96.40;;;;;;5136139;27;20102;-78
2021/06/26 01:15:36;;;;;;;10.05;8.63;;;25.40;96.50;;;;;;5117554;27;20024;-78
2021/06/26 01:18:02;;;;;;;11.50;8.88;;;25.40;96.70;;;;;;5118310;27;20034;-78
2021/06/26 01:20:28;;;;;;;10.15;8.63;;;25.40;96.70;;;;;;5135866;27;20031;-78
2021/06/26 01:22:57;;;;;;;9.20;8.20;;;25.30;96.80;;;;;;5117476;27;20025;-78
2021/06/26 01:25:23;;;;;;;9.70;8.73;;;25.30;96.80;;;;;;5136315;27;20019;-78
2021/06/26 01:27:50;;;;;;;17.15;9.32;;;25.30;96.90;;;;;;5136317;27;20026;-78
2021/06/26 01:30:18;;;;;;;9.65;8.68;;;25.20;96.90;;;;;;5135808;27;20023;-79
2021/06/26 01:32:44;;;;;;;10.63;7.80;;;25.20;97.00;;;;;;5135744;27;20029;-79
2021/06/26 01:35:10;;;;;;;10.70;8.70;;;25.20;97.00;;;;;;5135783;27;20105;-79
2021/06/26 01:37:40;;;;;;;11.45;9.45;;;25.20;97.00;;;;;;5135640;27;20493;-79
2021/06/26 01:40:07;;;;;;;11.23;9.25;;;25.20;96.90;;;;;;5135302;27;20043;-79
2021/06/26 01:42:33;;;;;;;11.57;9.02;;;25.20;96.90;;;;;;5135636;27;20061;-79
2021/06/26 01:44:59;;;;;;;11.75;9.60;;;25.20;96.90;;;;;;5135626;27;20046;-79
2021/06/26 01:47:24;;;;;;;11.65;9.10;;;25.10;96.80;;;;;;5135465;27;20524;-79
2021/06/26 01:49:50;;;;;;;12.10;7.95;;;25.00;96.60;;;;;;5134887;27;20029;-79
2021/06/26 01:52:16;;;;;;;11.45;9.15;;;24.90;96.60;;;;;;5135667;27;20094;-79
2021/06/26 01:54:41;;;;;;;13.52;9.02;;;24.80;96.50;;;;;;5135369;27;20495;-78
2021/06/26 01:57:09;;;;;;;11.00;9.25;;;24.80;96.40;;;;;;5135211;27;20358;-79
2021/06/26 01:59:36;;;;;;;11.20;9.13;;;24.70;96.50;;;;;;5117515;27;20027;-78
2021/06/26 02:02:01;;;;;;;12.52;9.13;;;24.70;96.60;;;;;;5116699;27;20019;-78
2021/06/26 02:04:27;;;;;;;12.15;9.15;;;24.60;96.50;;;;;;5116836;27;20019;-79
2021/06/26 02:06:53;;;;;;;12.80;9.70;;;24.60;96.50;;;;;;5116794;27;20029;-79
2021/06/26 02:09:18;;;;;;;13.18;9.43;;;24.60;96.40;;;;;;5135008;27;20102;-79
2021/06/26 02:11:44;;;;;;;11.77;8.95;;;24.60;96.50;;;;;;5135392;27;20022;-79
2021/06/26 02:14:11;;;;;;;10.52;9.07;;;24.50;96.50;;;;;;5116545;27;20076;-79
2021/06/26 02:16:37;;;;;;;12.40;8.80;;;24.40;96.60;;;;;;5135307;27;20019;-78
2021/06/26 02:19:03;;;;;;;16.10;9.00;;;24.40;96.60;;;;;;5134977;27;20015;-78
2021/06/26 02:21:29;;;;;;;12.30;9.63;;;24.40;96.70;;;;;;5135077;27;20028;-79
2021/06/26 02:23:54;;;;;;;11.80;8.88;;;24.40;96.80;;;;;;5132414;27;20094;-78
2021/06/26 02:26:20;;;;;;;10.18;9.00;;;24.40;96.80;;;;;;5114670;28;20114;-78
2021/06/26 02:28:46;;;;;;;15.65;9.52;;;24.30;96.90;;;;;;5114550;28;20020;-79
2021/06/26 02:31:12;;;;;;;17.13;9.48;;;24.40;96.90;;;;;;5096062;28;20434;-78
2021/06/26 02:33:37;;;;;;;11.57;9.32;;;24.50;97.00;;;;;;5095982;28;20202;-78
2021/06/26 02:36:03;;;;;;;11.57;8.77;;;24.40;97.10;;;;;;5114471;28;20492;-79
2021/06/26 02:38:29;;;;;;;10.32;8.50;;;24.50;97.10;;;;;;5096369;28;20032;-79
2021/06/26 02:40:55;;;;;;;12.88;9.30;;;24.50;97.10;;;;;;5113834;28;20072;-79
2021/06/26 02:43:20;;;;;;;16.67;9.80;;;24.50;97.70;;;;;;5095940;28;20028;-79
2021/06/26 02:45:47;;;;;;;12.20;9.45;;;24.50;97.50;;;;;;5114137;28;20024;-79
2021/06/26 02:48:13;;;;;;;9.77;8.40;;;24.50;97.60;;;;;;5114050;28;20403;-79
2021/06/26 02:50:39;;;;;;;13.98;9.38;;;24.60;97.40;;;;;;5114518;28;20036;-78
2021/06/26 02:53:05;;;;;;;11.48;9.10;;;24.70;97.40;;;;;;5114080;28;20055;-79
2021/06/26 02:55:31;;;;;;;12.00;8.95;;;24.70;97.40;;;;;;5113999;28;20019;-78
2021/06/26 02:57:57;;;;;;;14.95;9.15;;;24.70;97.40;;;;;;5114335;28;20020;-79
2021/06/26 03:00:24;;;;;;;11.10;8.63;;;24.70;97.40;;;;;;5114276;28;20051;-79
2021/06/26 03:02:49;;;;;;;10.30;9.02;;;24.70;97.30;;;;;;5117460;28;20019;-79
2021/06/26 03:05:15;;;;;;;8.68;7.60;;;24.80;97.10;;;;;;5118356;28;20016;-79
2021/06/26 03:07:52;;;;;;;13.13;8.75;;;24.80;96.90;;;;;;5117968;28;20076;-79
2021/06/26 03:10:19;;;;;;;14.32;8.55;;;24.90;96.70;;;;;;5118011;28;20026;-79
2021/06/26 03:12:45;;;;;;;9.38;8.20;;;24.90;96.40;;;;;;5118229;28;20100;-79
2021/06/26 03:15:11;;;;;;;13.10;8.38;;;24.90;96.60;;;;;;5118237;28;20066;-79
2021/06/26 03:17:37;;;;;;;10.38;8.00;;;24.90;96.20;;;;;;5128654;27;20520;-78
2021/06/26 03:20:04;;;;;;;10.02;8.18;;;25.00;96.10;;;;;;5138570;27;20481;-79
2021/06/26 03:22:30;;;;;;;9.60;8.38;;;25.00;96.10;;;;;;5119165;27;20015;-79
2021/06/26 03:24:56;;;;;;;10.75;7.63;;;25.00;96.00;;;;;;5119781;27;20430;-79
2021/06/26 03:27:21;;;;;;;8.20;7.38;;;25.10;95.90;;;;;;5119545;27;20026;-78
2021/06/26 03:29:47;;;;;;;11.25;7.72;;;25.20;95.80;;;;;;5138246;27;20102;-78
2021/06/26 03:32:12;;;;;;;9.40;7.63;;;25.20;95.80;;;;;;5119520;27;20031;-79
2021/06/26 03:34:38;;;;;;;9.38;8.40;;;25.20;95.60;;;;;;5138274;27;20072;-80
2021/06/26 03:37:04;;;;;;;9.05;8.00;;;25.30;95.70;;;;;;5138570;27;20023;-79
2021/06/26 03:39:30;;;;;;;9.57;8.30;;;25.30;95.40;;;;;;5119188;27;20043;-77
2021/06/26 03:41:56;;;;;;;11.93;8.40;;;25.30;95.30;;;;;;5119553;27;20044;-77
2021/06/26 03:44:21;;;;;;;10.80;8.75;;;25.30;95.30;;;;;;5119207;27;20469;-78
2021/06/26 03:46:47;;;;;;;10.68;8.05;;;25.30;95.20;;;;;;5119051;27;20428;-78
2021/06/26 03:49:13;;;;;;;12.10;8.68;;;25.30;95.30;;;;;;5137512;27;20473;-78
2021/06/26 03:51:41;;;;;;;12.50;8.68;;;25.40;95.40;;;;;;5137736;27;20107;-78
2021/06/26 03:54:07;;;;;;;11.75;8.85;;;25.40;95.40;;;;;;5119661;27;20020;-77
2021/06/26 03:56:33;;;;;;;10.15;9.10;;;25.30;95.40;;;;;;5138199;27;20067;-77
2021/06/26 03:59:00;;;;;;;11.15;8.75;;;25.40;95.40;;;;;;5119011;27;20473;-77
2021/06/26 04:01:27;;;;;;;12.15;10.00;;;25.40;95.30;;;;;;5119017;27;20034;-77
2021/06/26 04:03:52;;;;;;;13.00;9.38;;;25.40;95.00;;;;;;5119076;27;20026;-83
2021/06/26 04:06:18;;;;;;;11.20;9.30;;;25.40;95.00;;;;;;5118680;27;20031;-82
2021/06/26 04:08:44;;;;;;;15.77;9.82;;;25.40;95.00;;;;;;5118736;27;20029;-82
2021/06/26 04:11:09;;;;;;;10.73;9.50;;;25.40;95.00;;;;;;5118659;27;20027;-82
2021/06/26 04:13:39;;;;;;;13.43;9.32;;;25.40;95.00;;;;;;5118259;27;20040;-79
2021/06/26 15:50:13;;;;;;;16.50;5.47;;;28.70;67.20;;;;;;5112534;27;20738;-88
2021/06/26 15:52:43;;;;;;;7.25;4.53;;;28.40;67.70;;;;;;5111412;28;20020;-86
2021/06/26 15:55:09;;;;;;;7.93;4.70;;;28.30;67.60;;;;;;5110343;28;20118;-86
2021/06/26 18:43:42;;;;;;;21.70;14.32;;;25.50;76.70;;;;;;5111946;27;20438;-85
2021/06/26 18:46:08;;;;;;;3.50;2.92;;;25.60;77.50;;;;;;5111770;28;20466;-83
2021/06/26 18:48:34;;;;;;;6.38;3.53;;;25.60;77.90;;;;;;5110527;28;20089;-91
2021/06/26 18:51:00;;;;;;;4.40;3.70;;;25.70;78.10;;;;;;5111195;28;20055;-85
2021/06/26 18:53:25;;;;;;;6.15;3.97;;;25.70;78.20;;;;;;5110907;28;20040;-84
2021/06/26 18:56:12;;;;;;;6.15;3.35;;;25.80;77.70;;;;;;5111053;28;20035;-81
2021/06/26 18:58:43;;;;;;;6.25;3.85;;;25.80;77.50;;;;;;5101329;28;20428;-83
2021/06/26 19:01:15;;;;;;;4.95;3.15;;;25.80;77.10;;;;;;5106409;28;20489;-87
2021/06/26 19:03:42;;;;;;;5.07;3.58;;;25.90;76.60;;;;;;5089557;28;20052;-79
2021/06/26 19:06:08;;;;;;;4.90;3.80;;;25.90;76.50;;;;;;5106508;28;20020;-82
2021/06/26 19:08:34;;;;;;;7.90;3.83;;;26.00;76.30;;;;;;5091852;28;20078;-84
2021/06/26 19:11:00;;;;;;;5.35;3.83;;;25.90;77.60;;;;;;5109883;28;20055;-83
2021/06/26 19:13:27;;;;;;;6.90;4.15;;;25.80;77.00;;;;;;5111148;28;20539;-94
2021/06/26 19:15:54;;;;;;;7.28;4.28;;;25.60;77.50;;;;;;5110879;28;20136;-93
2021/06/26 19:18:20;;;;;;;12.13;4.10;;;25.60;77.00;;;;;;5110766;28;20020;-91
2021/06/26 19:20:47;;;;;;;6.32;3.80;;;25.50;76.70;;;;;;5110473;28;20027;-87
2021/06/26 19:23:15;;;;;;;6.93;4.15;;;25.50;77.00;;;;;;5110254;28;20123;-91
2021/06/26 19:25:48;;;;;;;11.52;4.20;;;25.30;77.80;;;;;;5110099;28;20161;-85
2021/06/26 19:28:15;;;;;;;7.63;4.00;;;25.20;78.30;;;;;;5109671;28;20028;-83
2021/06/26 19:30:43;;;;;;;10.75;4.32;;;25.20;78.20;;;;;;5111019;28;20055;-89
2021/06/26 19:33:09;;;;;;;9.98;4.05;;;25.10;78.20;;;;;;5110925;28;20470;-86
2021/06/26 19:35:36;;;;;;;8.88;4.28;;;25.10;78.60;;;;;;5111172;28;20031;-86
2021/06/26 19:38:03;;;;;;;6.78;4.03;;;25.00;78.90;;;;;;5096877;28;20021;-87
2021/06/26 19:40:28;;;;;;;9.93;4.22;;;25.00;78.10;;;;;;5089696;28;20024;-93
2021/06/26 19:42:54;;;;;;;8.63;5.40;;;25.00;79.90;;;;;;5104679;28;20048;-86
2021/06/26 19:45:20;;;;;;;8.45;6.03;;;25.00;80.30;;;;;;5110446;28;20080;-86
2021/06/26 19:47:46;;;;;;;6.40;5.15;;;24.90;80.90;;;;;;5109279;28;20062;-92
2021/06/26 19:50:13;;;;;;;6.15;5.13;;;24.90;80.90;;;;;;5109471;28;20116;-94
2021/06/26 19:52:45;;;;;;;5.13;4.45;;;24.90;81.80;;;;;;5110239;28;20122;-88
2021/06/26 19:55:12;;;;;;;6.60;4.00;;;24.80;82.10;;;;;;5095321;28;20024;-89
2021/06/26 19:57:38;;;;;;;7.80;3.97;;;24.80;82.20;;;;;;5095964;28;20531;-89
2021/06/26 20:00:10;;;;;;;4.85;3.83;;;24.70;84.00;;;;;;5095754;28;20036;-90
2021/06/26 20:02:36;;;;;;;11.55;3.92;;;24.60;84.10;;;;;;5095562;28;20028;-89
2021/06/26 20:05:03;;;;;;;7.35;4.10;;;24.60;84.70;;;;;;5092840;28;20420;-90
2021/06/26 20:07:28;;;;;;;5.13;3.80;;;24.50;86.30;;;;;;5075783;28;20024;-86
2021/06/26 20:09:54;;;;;;;6.28;3.70;;;24.30;87.60;;;;;;5076344;28;20026;-87
2021/06/26 20:12:20;;;;;;;8.48;3.83;;;24.30;87.20;;;;;;5075628;28;20029;-87
2021/06/26 20:15:06;;;;;;;6.43;3.70;;;24.30;88.10;;;;;;5075556;28;20035;-88
2021/06/26 20:17:32;;;;;;;6.65;4.05;;;24.20;88.30;;;;;;5075320;28;20028;-89
2021/06/26 20:19:57;;;;;;;6.75;3.58;;;24.20;88.70;;;;;;5075186;28;20028;-87
2021/06/26 20:23:29;;;;;;;8.45;4.13;;;24.20;87.00;;;;;;5071152;27;20371;-88
2021/06/26 20:25:55;;;;;;;4.05;3.58;;;24.30;87.40;;;;;;5070845;28;20078;-85
2021/06/26 20:28:22;;;;;;;7.15;4.07;;;24.30;87.70;;;;;;5071079;28;20664;-86
2021/06/26 20:30:49;;;;;;;6.20;3.80;;;24.30;88.20;;;;;;5070450;28;20032;-86
2021/06/26 20:33:15;;;;;;;7.15;3.72;;;24.20;88.70;;;;;;5070925;28;20020;-86
2021/06/26 20:35:41;;;;;;;4.75;3.85;;;24.20;88.60;;;;;;5069944;28;20277;-91
2021/06/26 20:38:07;;;;;;;8.15;4.00;;;24.20;89.50;;;;;;5067958;28;20111;-87
2021/06/26 20:40:33;;;;;;;6.03;4.20;;;24.10;90.00;;;;;;5069626;28;20036;-87
2021/06/26 20:42:58;;;;;;;7.60;4.10;;;24.20;90.00;;;;;;5069343;28;20028;-87
2021/06/26 20:45:24;;;;;;;10.15;4.05;;;24.10;90.10;;;;;;5069714;28;20383;-89
2021/06/26 20:47:53;;;;;;;8.23;4.07;;;24.00;90.70;;;;;;5071583;28;20025;-89
2021/06/26 20:50:20;;;;;;;6.10;3.63;;;23.90;90.80;;;;;;5071564;28;20035;-89
2021/06/26 20:52:53;;;;;;;8.43;3.70;;;23.90;90.80;;;;;;5071012;28;20021;-93
2021/06/26 20:55:19;;;;;;;6.72;3.63;;;23.80;91.00;;;;;;5069988;28;20028;-93
2021/06/26 20:57:44;;;;;;;4.95;3.50;;;23.80;91.20;;;;;;5070368;28;20029;-88
